createdAt,value
2023-04-24T00:02:00.631Z,3.78
2023-04-24T00:04:27.511Z,2.22
2023-04-24T00:06:57.965Z,2.00
2023-04-24T00:09:25.117Z,5.53
2023-04-24T00:11:51.779Z,2.25
2023-04-24T00:14:18.511Z,2.25
2023-04-24T00:16:45.202Z,4.10
2023-04-24T00:19:13.652Z,2.55
2023-04-24T00:21:40.998Z,3.35
2023-04-24T00:24:09.894Z,3.38
2023-04-24T00:26:36.667Z,2.33
2023-04-24T00:29:03.405Z,4.45
2023-04-24T00:31:30.213Z,3.00
2023-04-24T00:33:56.870Z,4.60
2023-04-24T00:36:23.428Z,5.15
2023-04-24T00:38:50.582Z,2.47
2023-04-24T00:41:17.269Z,9.80
2023-04-24T00:43:44.174Z,6.60
2023-04-24T00:46:11.617Z,7.55
2023-04-24T00:48:40.152Z,8.50
2023-04-24T00:51:07.876Z,7.93
2023-04-24T00:53:34.506Z,17.85
2023-04-24T00:56:01.226Z,5.30
2023-04-24T00:58:29.382Z,8.27
2023-04-24T01:00:59.514Z,11.48
2023-04-24T01:03:31.166Z,9.15
2023-04-24T01:05:58.740Z,5.95
2023-04-24T01:08:25.996Z,9.43
2023-04-24T01:10:53.253Z,6.00
2023-04-24T01:13:21.052Z,9.02
2023-04-24T01:15:48.003Z,8.30
2023-04-24T01:18:14.899Z,14.00
2023-04-24T01:20:43.535Z,8.55
2023-04-24T01:23:10.538Z,9.50
2023-04-24T01:25:37.594Z,7.55
2023-04-24T01:28:04.588Z,8.70
2023-04-24T01:30:32.454Z,8.55
2023-04-24T01:32:59.902Z,13.02
2023-04-24T01:35:26.941Z,13.40
2023-04-24T01:37:53.523Z,13.82
2023-04-24T01:40:20.144Z,16.10
2023-04-24T01:42:47.120Z,12.00
2023-04-24T01:45:16.359Z,10.73
2023-04-24T01:47:43.137Z,10.23
2023-04-24T01:50:10.382Z,13.95
2023-04-24T01:52:39.331Z,15.98
2023-04-24T01:55:06.884Z,15.27
2023-04-24T01:57:34.048Z,16.48
2023-04-24T02:00:03.271Z,16.17
2023-04-24T02:02:45.852Z,17.40
2023-04-24T02:05:14.474Z,19.15
2023-04-24T02:07:41.173Z,19.50
2023-04-24T02:10:11.002Z,19.17
2023-04-24T02:12:42.341Z,18.73
2023-04-24T02:15:09.582Z,19.67
2023-04-24T02:17:37.719Z,19.40
2023-04-24T02:20:05.635Z,17.88
2023-04-24T02:22:32.259Z,26.73
2023-04-24T02:25:04.270Z,15.60
2023-04-24T02:27:31.220Z,22.67
2023-04-24T02:29:57.851Z,25.95
2023-04-24T02:36:47.559Z,22.15
2023-04-24T02:39:17.461Z,24.70
2023-04-24T02:41:44.593Z,23.92
2023-04-24T02:44:11.453Z,29.38
2023-04-24T02:46:39.017Z,25.75
2023-04-24T02:49:05.618Z,21.52
2023-04-24T02:51:32.486Z,25.42
2023-04-24T02:53:59.223Z,26.45
2023-04-24T02:56:25.954Z,22.38
2023-04-24T02:58:53.527Z,26.52
2023-04-24T03:01:20.494Z,23.88
2023-04-24T03:03:47.266Z,27.67
2023-04-24T03:06:14.018Z,32.47
2023-04-24T03:08:40.742Z,26.55
2023-04-24T03:11:07.675Z,24.67
2023-04-24T03:13:37.231Z,30.52
2023-04-24T03:16:03.869Z,21.80
2023-04-24T03:18:30.622Z,25.65
2023-04-24T03:20:57.685Z,21.65
2023-04-24T03:23:24.944Z,27.40
2023-04-24T03:25:52.171Z,30.10
2023-04-24T03:28:20.642Z,25.70
2023-04-24T03:30:58.420Z,23.83
2023-04-24T03:33:27.416Z,20.25
2023-04-24T03:36:03.085Z,26.80
2023-04-24T03:38:37.493Z,23.45
2023-04-24T03:41:19.979Z,22.85
2023-04-24T03:43:50.557Z,21.57
2023-04-24T03:46:17.386Z,25.67
2023-04-24T03:48:53.688Z,24.60
2023-04-24T03:51:23.845Z,24.48
2023-04-24T03:53:53.702Z,22.65
2023-04-24T03:56:27.455Z,22.10
2023-04-24T03:58:53.982Z,26.80
2023-04-24T04:01:21.865Z,18.35
2023-04-24T04:04:09.236Z,23.73
2023-04-24T04:06:41.508Z,25.52
2023-04-24T04:09:09.412Z,27.38
2023-04-24T04:11:36.673Z,25.95
2023-04-24T04:14:03.475Z,31.42
2023-04-24T04:16:31.198Z,27.13
2023-04-24T04:19:03.920Z,20.52
2023-04-24T04:21:32.198Z,21.98
2023-04-24T04:24:10.632Z,18.88
2023-04-24T04:26:42.256Z,23.75
2023-04-24T04:29:18.654Z,16.40
2023-04-24T04:31:47.470Z,20.02
2023-04-24T04:34:15.349Z,20.30
2023-04-24T04:36:42.867Z,14.75
2023-04-24T04:39:41.962Z,17.48
2023-04-24T04:42:14.520Z,18.70
2023-04-24T04:44:43.662Z,18.73
2023-04-24T04:47:15.351Z,22.35
2023-04-24T04:49:44.729Z,19.23
2023-04-24T04:52:19.143Z,16.80
2023-04-24T04:54:49.628Z,22.38
2023-04-24T04:57:16.884Z,17.75
2023-04-24T04:59:44.939Z,18.58
2023-04-24T05:02:19.824Z,16.70
2023-04-24T05:04:47.191Z,23.02
2023-04-24T05:07:14.472Z,22.42
2023-04-24T05:09:47.051Z,21.83
2023-04-24T05:12:14.648Z,16.95
2023-04-24T05:14:48.873Z,16.58
2023-04-24T05:17:16.057Z,18.48
2023-04-24T05:19:43.189Z,16.02
2023-04-24T05:22:10.807Z,18.63
2023-04-24T05:24:45.914Z,17.95
2023-04-24T05:27:33.013Z,17.70
2023-04-24T05:30:00.309Z,21.30
2023-04-24T05:32:29.090Z,20.63
2023-04-24T05:34:56.263Z,20.00
2023-04-24T05:37:23.030Z,16.77
2023-04-24T05:39:53.647Z,18.48
2023-04-24T05:42:35.061Z,19.00
2023-04-24T05:45:03.396Z,15.38
2023-04-24T05:47:30.730Z,16.40
2023-04-24T05:49:58.086Z,20.58
2023-04-24T05:52:24.735Z,18.08
2023-04-24T05:54:54.792Z,19.23
2023-04-24T05:57:25.863Z,18.35
2023-04-24T06:00:13.031Z,17.38
2023-04-24T06:02:50.558Z,18.27
2023-04-24T06:05:17.546Z,16.30
2023-04-24T06:07:45.815Z,19.20
2023-04-24T06:10:12.533Z,19.55
2023-04-24T06:12:44.472Z,15.77
2023-04-24T06:15:16.455Z,21.45
2023-04-24T06:18:18.620Z,14.15
2023-04-24T06:20:46.625Z,13.23
2023-04-24T06:23:13.262Z,18.92
2023-04-24T06:25:40.124Z,15.90
2023-04-24T06:28:06.946Z,11.57
2023-04-24T06:30:33.574Z,18.17
2023-04-24T06:33:06.153Z,18.92
2023-04-24T06:35:40.209Z,12.93
2023-04-24T06:38:07.107Z,14.52
2023-04-24T06:40:34.441Z,10.68
2023-04-24T06:43:05.469Z,16.80
2023-04-24T06:45:31.944Z,11.88
2023-04-24T06:47:58.682Z,11.68
2023-04-24T06:50:25.506Z,13.57
2023-04-24T06:52:52.182Z,15.65
2023-04-24T06:55:18.988Z,16.40
2023-04-24T06:57:45.803Z,11.05
2023-04-24T07:00:13.208Z,13.77
2023-04-24T07:02:40.045Z,10.38
2023-04-24T07:05:14.007Z,10.15
2023-04-24T07:07:41.233Z,9.40
2023-04-24T07:10:09.484Z,12.13
2023-04-24T07:12:37.001Z,6.60
2023-04-24T07:15:04.295Z,6.43
2023-04-24T07:17:30.941Z,6.90
2023-04-24T07:19:57.527Z,6.13
2023-04-24T07:22:24.271Z,6.40
2023-04-24T07:24:50.970Z,6.22
2023-04-24T07:27:17.907Z,5.55
2023-04-24T07:29:45.282Z,3.03
2023-04-24T07:32:12.130Z,3.38
2023-04-24T07:34:40.319Z,2.10
2023-04-24T07:37:07.146Z,2.30
2023-04-24T07:39:34.076Z,4.25
2023-04-24T07:42:03.831Z,5.05
2023-04-24T07:44:30.619Z,2.55
2023-04-24T07:46:57.562Z,3.80
2023-04-24T07:49:24.757Z,1.95
2023-04-24T07:51:51.529Z,3.50
2023-04-24T07:54:20.025Z,2.65
2023-04-24T07:56:47.898Z,3.55
2023-04-24T07:59:14.921Z,4.03
2023-04-24T08:01:41.496Z,6.85
2023-04-24T08:04:08.768Z,4.80
2023-04-24T08:06:36.178Z,7.05
2023-04-24T08:09:03.774Z,4.60
2023-04-24T08:11:30.517Z,4.85
2023-04-24T08:13:57.148Z,5.93
2023-04-24T08:16:25.147Z,5.72
2023-04-24T08:18:52.366Z,5.65
2023-04-24T08:21:19.816Z,8.23
2023-04-24T08:23:46.921Z,2.67
2023-04-24T08:26:14.859Z,2.30
2023-04-24T08:28:41.460Z,3.25
2023-04-24T08:31:08.188Z,6.05
2023-04-24T08:33:38.001Z,4.72
2023-04-24T08:36:06.287Z,3.65
2023-04-24T08:38:32.905Z,4.45
2023-04-24T08:41:00.621Z,5.07
2023-04-24T08:43:28.314Z,4.38
2023-04-24T08:45:58.527Z,5.97
2023-04-24T08:48:30.785Z,6.97
2023-04-24T08:51:09.663Z,21.40
2023-04-24T08:53:36.839Z,20.48
2023-04-24T08:56:03.816Z,17.83
2023-04-24T08:58:31.601Z,19.55
2023-04-24T09:00:58.951Z,15.95
2023-04-24T09:03:28.522Z,13.20
2023-04-24T09:05:56.438Z,15.25
2023-04-24T09:08:25.674Z,22.73
2023-04-24T09:10:52.280Z,13.35
2023-04-24T09:13:20.709Z,17.85
2023-04-24T09:15:47.394Z,18.83
2023-04-24T09:18:13.999Z,21.27
2023-04-24T09:21:19.325Z,22.02
2023-04-24T09:23:45.896Z,23.20
2023-04-24T09:26:13.423Z,23.02
2023-04-24T09:28:41.138Z,21.33
2023-04-24T09:31:13.945Z,19.25
2023-04-24T09:33:41.100Z,24.70
2023-04-24T09:36:07.690Z,29.35
2023-04-24T09:38:38.899Z,28.73
2023-04-24T09:41:08.236Z,29.73
2023-04-24T09:43:36.411Z,33.33
2023-04-24T09:46:08.641Z,31.67
2023-04-24T09:48:37.089Z,32.75
2023-04-24T09:51:05.560Z,26.52
2023-04-24T09:53:32.334Z,34.55
2023-04-24T09:56:11.637Z,36.58
2023-04-24T09:58:38.258Z,36.67
2023-04-24T10:01:05.424Z,31.10
2023-04-24T10:03:35.232Z,34.50
2023-04-24T10:06:10.126Z,35.28
2023-04-24T10:08:38.317Z,35.92
2023-04-24T10:11:05.509Z,36.47
2023-04-24T10:13:33.450Z,40.28
2023-04-24T10:16:01.834Z,30.67
2023-04-24T10:18:29.165Z,39.03
2023-04-24T10:21:01.017Z,32.78
2023-04-24T10:23:28.773Z,36.40
2023-04-24T10:25:55.910Z,32.10
2023-04-24T10:28:23.466Z,36.88
2023-04-24T10:30:50.862Z,31.27
2023-04-24T10:33:18.692Z,35.45
2023-04-24T10:35:48.796Z,33.05
2023-04-24T10:38:19.959Z,31.08
2023-04-24T10:40:46.560Z,39.25
2023-04-24T10:43:18.039Z,38.22
2023-04-24T10:46:01.634Z,38.65
2023-04-24T10:48:28.472Z,29.65
2023-04-24T10:50:55.057Z,36.95
2023-04-24T10:53:27.778Z,45.00
2023-04-24T10:56:08.058Z,50.05
2023-04-24T10:58:53.357Z,37.97
2023-04-24T11:01:30.941Z,37.55
2023-04-24T11:03:59.740Z,36.10
2023-04-24T11:06:32.551Z,39.17
2023-04-24T11:09:09.357Z,32.28
2023-04-24T11:11:38.464Z,40.38
2023-04-24T11:14:07.718Z,39.03
2023-04-24T11:16:35.986Z,26.83
2023-04-24T11:19:04.005Z,34.17
2023-04-24T11:21:41.904Z,22.85
2023-04-24T11:24:31.672Z,25.77
2023-04-24T11:27:17.301Z,27.70
2023-04-24T11:29:55.962Z,20.00
2023-04-24T11:32:30.864Z,29.25
2023-04-24T11:35:20.073Z,18.83
2023-04-24T11:38:07.862Z,21.70
2023-04-24T11:40:38.914Z,18.73
2023-04-24T11:43:08.020Z,26.10
2023-04-24T11:45:35.838Z,25.00
2023-04-24T11:48:04.120Z,22.20
2023-04-24T11:50:31.320Z,16.60
2023-04-24T11:55:42.221Z,16.00
2023-04-24T11:58:09.430Z,14.82
2023-04-24T12:00:36.831Z,22.50
2023-04-24T12:03:07.609Z,27.13
2023-04-24T12:05:35.961Z,7.80
2023-04-24T12:08:03.186Z,18.02
2023-04-24T12:10:31.755Z,17.52
2023-04-24T12:12:59.453Z,17.58
2023-04-24T12:15:26.688Z,19.38
2023-04-24T12:17:54.546Z,13.48
2023-04-24T12:20:30.150Z,18.70
2023-04-24T12:22:58.480Z,14.07
2023-04-24T12:25:32.881Z,14.55
2023-04-24T12:28:05.547Z,9.98
2023-04-24T12:30:41.965Z,11.82
2023-04-24T12:33:08.759Z,12.60
2023-04-24T12:35:36.673Z,14.50
2023-04-24T12:38:10.912Z,6.82
2023-04-24T12:40:37.574Z,9.07
2023-04-24T12:43:20.898Z,6.53
2023-04-24T12:45:55.038Z,2.92
2023-04-24T12:48:23.312Z,8.70
2023-04-24T12:50:50.039Z,4.43
2023-04-24T12:53:17.069Z,7.10
2023-04-24T12:55:45.405Z,4.85
2023-04-24T12:58:12.048Z,8.50
2023-04-24T13:00:41.010Z,7.53
2023-04-24T13:03:08.441Z,4.72
2023-04-24T13:05:35.200Z,5.07
2023-04-24T13:08:01.803Z,3.33
2023-04-24T13:10:28.833Z,7.10
2023-04-24T13:12:55.648Z,5.30
2023-04-24T13:15:22.220Z,4.50
2023-04-24T13:17:48.913Z,5.93
2023-04-24T13:20:15.647Z,5.43
2023-04-24T13:22:42.220Z,4.60
2023-04-24T13:25:09.800Z,5.75
2023-04-24T13:27:36.449Z,2.22
2023-04-24T13:30:03.677Z,5.95
2023-04-24T13:32:30.407Z,4.90
2023-04-24T13:34:57.790Z,5.03
2023-04-24T13:37:24.367Z,5.25
2023-04-24T13:39:52.356Z,2.75
2023-04-24T13:42:19.794Z,4.90
2023-04-24T13:44:46.462Z,5.93
2023-04-24T13:47:13.167Z,5.40
2023-04-24T13:49:39.859Z,3.38
2023-04-24T13:52:06.590Z,5.85
2023-04-24T13:54:33.723Z,5.10
2023-04-24T13:57:01.397Z,10.45
2023-04-24T13:59:28.024Z,8.70
2023-04-24T14:01:54.739Z,5.40
2023-04-24T14:04:21.966Z,5.13
2023-04-24T14:06:48.780Z,5.55
2023-04-24T14:09:15.719Z,2.25
2023-04-24T14:11:42.368Z,6.60
2023-04-24T14:14:09.211Z,5.60
2023-04-24T14:16:36.143Z,2.28
2023-04-24T14:19:02.990Z,9.20
2023-04-24T14:21:29.599Z,5.47
2023-04-24T14:23:56.205Z,4.50
2023-04-24T14:26:22.867Z,2.72
2023-04-24T14:28:49.701Z,5.80
2023-04-24T14:31:17.945Z,5.22
2023-04-24T14:33:44.992Z,7.38
2023-04-24T14:36:12.095Z,4.00
2023-04-24T14:38:38.656Z,5.82
2023-04-24T14:41:14.071Z,4.53
2023-04-24T14:46:24.110Z,2.95
2023-04-24T14:48:50.967Z,5.45
2023-04-24T14:51:17.702Z,5.30
2023-04-24T14:53:54.773Z,4.65
2023-04-24T14:56:22.644Z,4.60
2023-04-24T14:59:00.635Z,5.53
2023-04-24T15:01:27.271Z,2.40
2023-04-24T15:03:54.313Z,7.65
2023-04-24T15:06:21.476Z,3.55
2023-04-24T15:08:50.440Z,4.45
2023-04-24T15:11:18.753Z,3.43
2023-04-24T15:14:01.491Z,5.15
2023-04-24T15:16:28.524Z,6.25
2023-04-24T15:18:55.373Z,2.63
2023-04-24T15:21:22.121Z,7.78
2023-04-24T15:23:49.114Z,3.60
2023-04-24T15:26:18.356Z,4.60
2023-04-24T15:28:44.970Z,3.47
2023-04-24T15:31:18.570Z,6.72
2023-04-24T15:33:45.723Z,5.15
2023-04-24T15:36:12.642Z,3.97
2023-04-24T15:38:39.268Z,4.90
2023-04-24T15:41:06.101Z,4.43
2023-04-24T15:43:35.093Z,7.32
2023-04-24T15:46:05.372Z,4.63
2023-04-24T15:48:32.638Z,2.95
2023-04-24T15:51:02.459Z,6.82
2023-04-24T15:53:29.117Z,3.72
2023-04-24T15:55:57.950Z,6.88
2023-04-24T15:58:24.702Z,7.93
2023-04-24T16:00:54.848Z,3.67
2023-04-24T16:03:23.208Z,6.90
2023-04-24T16:05:50.065Z,5.10
2023-04-24T16:08:16.707Z,6.25
2023-04-24T16:10:44.362Z,5.28
2023-04-24T16:13:11.076Z,6.90
2023-04-24T16:15:37.749Z,9.07
2023-04-24T16:18:04.900Z,3.72
2023-04-24T16:20:31.666Z,4.80
2023-04-24T16:22:58.264Z,8.45
2023-04-24T16:25:24.904Z,5.35
2023-04-24T16:27:52.728Z,3.40
2023-04-24T16:30:19.655Z,6.28
2023-04-24T16:32:46.271Z,7.03
2023-04-24T16:35:12.852Z,3.47
2023-04-24T16:37:39.404Z,7.07
2023-04-24T16:40:10.512Z,9.15
2023-04-24T16:42:38.203Z,7.82
2023-04-24T16:45:06.605Z,4.57
2023-04-24T16:47:33.297Z,6.03
2023-04-24T16:49:59.898Z,3.50
2023-04-24T16:52:26.519Z,10.13
2023-04-24T16:54:53.330Z,7.10
2023-04-24T16:57:19.942Z,6.93
2023-04-24T16:59:46.765Z,8.60
2023-04-24T17:02:14.173Z,8.93
2023-04-24T17:04:41.551Z,4.68
2023-04-24T17:07:08.237Z,5.45
2023-04-24T17:09:34.977Z,7.47
2023-04-24T17:12:02.642Z,8.93
2023-04-24T17:14:29.612Z,4.15
2023-04-24T17:16:56.232Z,5.45
2023-04-24T17:19:22.890Z,6.43
2023-04-24T17:21:49.432Z,4.00
2023-04-24T17:24:16.069Z,5.75
2023-04-24T17:26:42.647Z,4.63
2023-04-24T17:29:09.258Z,5.35
2023-04-24T17:31:37.124Z,7.03
2023-04-24T17:34:08.009Z,6.43
2023-04-24T17:39:02.003Z,7.60
2023-04-24T17:41:28.621Z,10.70
2023-04-24T17:43:55.224Z,6.00
2023-04-24T17:46:21.921Z,7.35
2023-04-24T17:48:49.600Z,6.82
2023-04-24T17:51:16.546Z,7.80
2023-04-24T17:53:43.243Z,4.97
2023-04-24T17:56:09.918Z,5.13
2023-04-24T17:58:38.888Z,4.88
2023-04-24T18:01:06.001Z,5.72
2023-04-24T18:03:32.763Z,8.68
2023-04-24T18:05:59.566Z,10.07
2023-04-24T18:08:26.106Z,6.45
2023-04-24T18:10:52.753Z,4.07
2023-04-24T18:13:19.381Z,6.57
2023-04-24T18:15:46.079Z,6.55
2023-04-24T18:18:12.916Z,6.18
2023-04-24T18:20:39.834Z,5.85
2023-04-24T18:23:06.594Z,7.32
2023-04-24T18:25:33.292Z,9.27
2023-04-24T18:27:59.911Z,10.60
2023-04-24T18:30:28.091Z,9.02
2023-04-24T18:32:54.766Z,20.88
2023-04-24T18:35:22.399Z,9.82
2023-04-24T18:37:50.002Z,9.55
2023-04-24T18:40:17.019Z,13.57
2023-04-24T18:42:44.404Z,9.30
2023-04-24T18:45:14.374Z,9.52
2023-04-24T18:47:41.891Z,8.55
2023-04-24T18:50:12.327Z,11.48
2023-04-24T18:52:39.224Z,8.38
2023-04-24T18:55:06.978Z,13.15
2023-04-24T18:57:33.981Z,5.90
2023-04-24T19:00:03.211Z,6.72
2023-04-24T19:02:29.958Z,6.45
2023-04-24T19:04:57.148Z,12.95
2023-04-24T19:07:24.165Z,8.13
2023-04-24T19:09:50.755Z,10.93
2023-04-24T19:12:17.506Z,11.57
2023-04-24T19:14:44.039Z,10.85
2023-04-24T19:17:11.079Z,10.85
2023-04-24T19:19:37.826Z,11.07
2023-04-24T19:22:04.771Z,13.05
2023-04-24T19:24:33.789Z,9.90
2023-04-24T19:27:00.649Z,16.95
2023-04-24T19:29:27.334Z,10.32
2023-04-24T19:31:57.422Z,23.23
2023-04-24T19:34:24.421Z,14.02
2023-04-24T19:36:51.410Z,6.30
2023-04-24T19:39:18.146Z,7.90
2023-04-24T19:41:44.744Z,9.48
2023-04-24T19:44:11.415Z,15.20
2023-04-24T19:46:39.807Z,9.48
2023-04-24T19:49:06.773Z,10.23
2023-04-24T19:51:33.549Z,9.75
2023-04-24T19:54:00.639Z,20.15
2023-04-24T19:56:27.355Z,11.85
2023-04-24T19:58:54.006Z,11.13
2023-04-24T20:01:23.837Z,9.50
2023-04-24T20:03:50.748Z,12.85
2023-04-24T20:06:17.491Z,13.85
2023-04-24T20:08:44.743Z,16.50
2023-04-24T20:11:25.871Z,10.02
2023-04-24T20:13:54.520Z,10.50
2023-04-24T20:16:22.369Z,17.05
2023-04-24T20:18:52.005Z,16.20
2023-04-24T20:21:19.151Z,18.35
2023-04-24T20:23:45.955Z,18.17
2023-04-24T20:26:27.501Z,16.67
2023-04-24T20:28:54.154Z,17.25
2023-04-24T20:31:20.829Z,15.20
2023-04-24T20:33:47.533Z,9.60
2023-04-24T20:36:14.092Z,15.88
2023-04-24T20:38:40.903Z,12.27
2023-04-24T20:41:08.761Z,14.75
2023-04-24T20:43:35.556Z,25.00
2023-04-24T20:46:02.637Z,16.65
2023-04-24T20:48:32.635Z,14.70
2023-04-24T20:50:59.453Z,17.50
2023-04-24T20:53:26.111Z,22.20
2023-04-24T20:55:53.061Z,14.50
2023-04-24T20:58:20.940Z,15.43
2023-04-24T21:00:48.005Z,11.65
2023-04-24T21:03:15.639Z,17.15
2023-04-24T21:05:42.500Z,11.57
2023-04-24T21:08:09.138Z,14.73
2023-04-24T21:10:35.785Z,12.98
2023-04-24T21:13:02.399Z,19.70
2023-04-24T21:15:29.303Z,18.48
2023-04-24T21:17:56.007Z,16.17
2023-04-24T21:20:23.258Z,14.93
2023-04-24T21:22:49.888Z,16.23
2023-04-24T21:25:16.681Z,14.20
2023-04-24T21:27:43.605Z,19.05
2023-04-24T21:30:11.182Z,14.13
2023-04-24T21:32:39.264Z,26.20
2023-04-24T21:35:06.442Z,16.17
2023-04-24T21:37:35.358Z,20.10
2023-04-24T21:40:04.842Z,17.27
2023-04-24T21:42:31.876Z,18.00
2023-04-24T21:44:58.760Z,15.82
2023-04-24T21:47:25.582Z,19.67
2023-04-24T21:49:52.596Z,20.02
2023-04-24T21:52:19.135Z,19.17
2023-04-24T21:54:45.910Z,23.92
2023-04-24T21:57:12.556Z,24.00
2023-04-24T21:59:47.018Z,18.48
2023-04-24T22:02:13.927Z,22.20
2023-04-24T22:04:40.769Z,22.13
2023-04-24T22:07:07.632Z,30.63
2023-04-24T22:09:34.216Z,24.35
2023-04-24T22:12:00.859Z,21.48
2023-04-24T22:14:27.577Z,19.92
2023-04-24T22:16:57.009Z,21.15
2023-04-24T22:19:25.667Z,29.63
2023-04-24T22:21:52.301Z,24.17
2023-04-24T22:24:20.021Z,21.25
2023-04-24T22:26:46.660Z,18.73
2023-04-24T22:29:13.643Z,24.00
2023-04-24T22:31:40.634Z,24.65
2023-04-24T22:34:07.241Z,34.50
2023-04-24T22:36:34.136Z,24.10
2023-04-24T22:39:00.755Z,18.77
2023-04-24T22:41:27.520Z,23.35
2023-04-24T22:43:55.356Z,26.55
2023-04-24T22:46:21.995Z,22.88
2023-04-24T22:48:49.211Z,19.48
2023-04-24T22:51:17.979Z,25.08
2023-04-24T22:53:44.741Z,20.55
2023-04-24T22:56:11.788Z,25.95
2023-04-24T22:58:38.547Z,18.70
2023-04-24T23:01:05.296Z,19.50
2023-04-24T23:03:33.160Z,17.67
2023-04-24T23:05:59.962Z,30.67
2023-04-24T23:08:26.523Z,18.95
2023-04-24T23:10:53.162Z,22.65
2023-04-24T23:13:19.801Z,31.42
2023-04-24T23:15:46.356Z,20.42
2023-04-24T23:18:12.894Z,21.40
2023-04-24T23:20:39.533Z,37.63
2023-04-24T23:23:06.195Z,19.15
2023-04-24T23:25:32.908Z,29.48
2023-04-24T23:27:59.522Z,22.27
2023-04-24T23:30:26.210Z,17.48
2023-04-24T23:32:54.271Z,20.60
2023-04-24T23:37:50.699Z,19.38
2023-04-24T23:40:17.295Z,21.30
2023-04-24T23:42:45.477Z,28.83
2023-04-24T23:45:14.376Z,20.58
2023-04-24T23:47:40.993Z,23.27
2023-04-24T23:50:08.108Z,28.67
2023-04-24T23:52:35.370Z,30.83
2023-04-24T23:55:06.456Z,25.25
2023-04-24T23:57:33.249Z,17.40
